sensor_id;sensor_type;location;lat;lon;timestamp;temperature;humidity
652;DHT22;310;48.490;9.200;2023-06-26T00:01:15;25.30;24.70
652;DHT22;310;48.490;9.200;2023-06-26T00:03:40;25.40;25.80
652;DHT22;310;48.490;9.200;2023-06-26T00:06:06;25.40;25.20
652;DHT22;310;48.490;9.200;2023-06-26T00:08:31;25.30;25.20
652;DHT22;310;48.490;9.200;2023-06-26T00:10:57;25.30;25.30
652;DHT22;310;48.490;9.200;2023-06-26T00:13:23;25.40;23.00
652;DHT22;310;48.490;9.200;2023-06-26T00:15:50;25.40;22.50
652;DHT22;310;48.490;9.200;2023-06-26T00:18:16;25.40;22.90
652;DHT22;310;48.490;9.200;2023-06-26T00:20:41;25.40;24.10
652;DHT22;310;48.490;9.200;2023-06-26T00:23:07;25.40;23.00
652;DHT22;310;48.490;9.200;2023-06-26T00:25:33;25.40;24.00
652;DHT22;310;48.490;9.200;2023-06-26T00:27:59;25.40;22.50
652;DHT22;310;48.490;9.200;2023-06-26T00:30:25;25.40;23.40
652;DHT22;310;48.490;9.200;2023-06-26T00:32:50;25.00;22.80
652;DHT22;310;48.490;9.200;2023-06-26T00:35:16;24.50;25.10
652;DHT22;310;48.490;9.200;2023-06-26T00:37:42;24.40;24.90
652;DHT22;310;48.490;9.200;2023-06-26T00:40:08;24.00;25.10
652;DHT22;310;48.490;9.200;2023-06-26T00:42:34;23.80;26.70
652;DHT22;310;48.490;9.200;2023-06-26T00:45:00;23.50;27.80
652;DHT22;310;48.490;9.200;2023-06-26T00:47:26;23.30;28.40
652;DHT22;310;48.490;9.200;2023-06-26T00:49:53;23.50;28.50
652;DHT22;310;48.490;9.200;2023-06-26T00:52:20;23.60;28.60
652;DHT22;310;48.490;9.200;2023-06-26T00:54:46;23.70;28.60
652;DHT22;310;48.490;9.200;2023-06-26T00:57:12;24.00;28.10
652;DHT22;310;48.490;9.200;2023-06-26T00:59:37;24.10;28.90
652;DHT22;310;48.490;9.200;2023-06-26T01:02:03;24.00;28.20
652;DHT22;310;48.490;9.200;2023-06-26T01:04:29;24.10;28.30
652;DHT22;310;48.490;9.200;2023-06-26T01:06:57;24.00;28.70
652;DHT22;310;48.490;9.200;2023-06-26T01:09:24;24.00;28.90
652;DHT22;310;48.490;9.200;2023-06-26T01:11:51;23.80;28.70
652;DHT22;310;48.490;9.200;2023-06-26T01:14:16;23.90;28.80
652;DHT22;310;48.490;9.200;2023-06-26T01:16:43;23.90;28.80
652;DHT22;310;48.490;9.200;2023-06-26T01:19:27;23.80;29.80
652;DHT22;310;48.490;9.200;2023-06-26T01:22:00;23.80;29.10
652;DHT22;310;48.490;9.200;2023-06-26T01:24:33;23.60;28.50
652;DHT22;310;48.490;9.200;2023-06-26T01:27:00;23.70;29.50
652;DHT22;310;48.490;9.200;2023-06-26T01:29:29;23.70;29.70
652;DHT22;310;48.490;9.200;2023-06-26T01:31:55;23.60;28.50
652;DHT22;310;48.490;9.200;2023-06-26T01:34:21;23.50;29.30
652;DHT22;310;48.490;9.200;2023-06-26T01:36:47;23.60;29.70
652;DHT22;310;48.490;9.200;2023-06-26T01:39:16;23.60;29.30
652;DHT22;310;48.490;9.200;2023-06-26T01:41:42;23.60;29.50
652;DHT22;310;48.490;9.200;2023-06-26T01:44:28;23.60;30.10
652;DHT22;310;48.490;9.200;2023-06-26T01:47:02;23.70;30.00
652;DHT22;310;48.490;9.200;2023-06-26T01:49:45;23.60;29.70
652;DHT22;310;48.490;9.200;2023-06-26T01:58:04;23.10;30.40
652;DHT22;310;48.490;9.200;2023-06-26T02:00:31;23.10;31.20
652;DHT22;310;48.490;9.200;2023-06-26T02:02:57;23.20;31.30
652;DHT22;310;48.490;9.200;2023-06-26T02:05:23;23.20;31.10
652;DHT22;310;48.490;9.200;2023-06-26T02:07:49;23.10;30.70
652;DHT22;310;48.490;9.200;2023-06-26T02:10:15;23.00;31.80
652;DHT22;310;48.490;9.200;2023-06-26T02:12:40;23.10;31.40
652;DHT22;310;48.490;9.200;2023-06-26T02:15:06;22.90;31.10
652;DHT22;310;48.490;9.200;2023-06-26T02:17:32;22.90;31.90
652;DHT22;310;48.490;9.200;2023-06-26T02:19:58;22.90;32.00
652;DHT22;310;48.490;9.200;2023-06-26T02:22:23;23.10;31.40
652;DHT22;310;48.490;9.200;2023-06-26T02:24:49;22.90;31.90
652;DHT22;310;48.490;9.200;2023-06-26T02:27:15;22.90;31.40
652;DHT22;310;48.490;9.200;2023-06-26T02:29:42;22.80;30.80
652;DHT22;310;48.490;9.200;2023-06-26T02:32:08;22.80;31.90
652;DHT22;310;48.490;9.200;2023-06-26T02:34:34;22.90;32.30
652;DHT22;310;48.490;9.200;2023-06-26T02:37:00;22.70;31.30
652;DHT22;310;48.490;9.200;2023-06-26T02:39:26;22.50;32.20
652;DHT22;310;48.490;9.200;2023-06-26T02:41:52;22.50;32.80
652;DHT22;310;48.490;9.200;2023-06-26T02:44:17;22.60;32.40
652;DHT22;310;48.490;9.200;2023-06-26T02:46:43;22.70;32.10
652;DHT22;310;48.490;9.200;2023-06-26T02:49:09;22.70;32.40
652;DHT22;310;48.490;9.200;2023-06-26T02:51:34;22.50;31.00
652;DHT22;310;48.490;9.200;2023-06-26T02:54:00;22.50;32.30
652;DHT22;310;48.490;9.200;2023-06-26T02:56:26;22.50;31.00
652;DHT22;310;48.490;9.200;2023-06-26T02:58:57;22.40;31.70
652;DHT22;310;48.490;9.200;2023-06-26T03:01:24;22.30;32.20
652;DHT22;310;48.490;9.200;2023-06-26T03:03:49;22.00;33.10
652;DHT22;310;48.490;9.200;2023-06-26T03:06:15;22.10;33.00
652;DHT22;310;48.490;9.200;2023-06-26T03:08:41;22.20;33.00
652;DHT22;310;48.490;9.200;2023-06-26T03:11:07;22.40;32.10
652;DHT22;310;48.490;9.200;2023-06-26T03:13:35;22.30;33.00
652;DHT22;310;48.490;9.200;2023-06-26T03:16:00;22.20;32.40
652;DHT22;310;48.490;9.200;2023-06-26T03:18:27;22.20;32.60
652;DHT22;310;48.490;9.200;2023-06-26T03:20:53;22.10;32.20
652;DHT22;310;48.490;9.200;2023-06-26T03:23:22;22.00;32.30
652;DHT22;310;48.490;9.200;2023-06-26T03:25:48;22.00;33.70
652;DHT22;310;48.490;9.200;2023-06-26T03:28:14;22.10;32.90
652;DHT22;310;48.490;9.200;2023-06-26T03:30:39;22.20;33.10
652;DHT22;310;48.490;9.200;2023-06-26T03:33:05;22.20;33.20
652;DHT22;310;48.490;9.200;2023-06-26T03:35:30;22.50;31.20
652;DHT22;310;48.490;9.200;2023-06-26T03:37:57;22.30;31.20
652;DHT22;310;48.490;9.200;2023-06-26T03:40:22;22.20;31.60
652;DHT22;310;48.490;9.200;2023-06-26T03:42:48;22.10;31.70
652;DHT22;310;48.490;9.200;2023-06-26T03:45:14;22.10;31.90
652;DHT22;310;48.490;9.200;2023-06-26T03:47:39;22.00;33.00
652;DHT22;310;48.490;9.200;2023-06-26T03:50:05;22.00;32.70
652;DHT22;310;48.490;9.200;2023-06-26T03:52:31;22.10;32.80
652;DHT22;310;48.490;9.200;2023-06-26T03:55:00;22.00;32.20
652;DHT22;310;48.490;9.200;2023-06-26T03:57:26;22.00;33.00
652;DHT22;310;48.490;9.200;2023-06-26T03:59:52;22.10;32.60
652;DHT22;310;48.490;9.200;2023-06-26T04:02:17;22.00;33.30
652;DHT22;310;48.490;9.200;2023-06-26T04:04:43;22.00;33.30
652;DHT22;310;48.490;9.200;2023-06-26T04:07:09;22.00;33.10
652;DHT22;310;48.490;9.200;2023-06-26T04:09:35;22.10;33.00
652;DHT22;310;48.490;9.200;2023-06-26T04:12:00;22.20;32.60
652;DHT22;310;48.490;9.200;2023-06-26T04:14:26;22.30;33.00
652;DHT22;310;48.490;9.200;2023-06-26T04:16:52;22.30;33.40
652;DHT22;310;48.490;9.200;2023-06-26T04:19:17;22.40;32.30
652;DHT22;310;48.490;9.200;2023-06-26T04:21:43;22.50;32.20
652;DHT22;310;48.490;9.200;2023-06-26T04:24:09;22.50;31.40
652;DHT22;310;48.490;9.200;2023-06-26T04:26:34;22.30;30.80
652;DHT22;310;48.490;9.200;2023-06-26T04:29:01;22.30;31.60
652;DHT22;310;48.490;9.200;2023-06-26T04:31:27;22.00;32.30
652;DHT22;310;48.490;9.200;2023-06-26T04:33:53;22.00;32.10
652;DHT22;310;48.490;9.200;2023-06-26T04:36:20;21.80;32.20
652;DHT22;310;48.490;9.200;2023-06-26T04:38:46;21.60;32.90
652;DHT22;310;48.490;9.200;2023-06-26T04:41:15;21.30;34.50
652;DHT22;310;48.490;9.200;2023-06-26T04:43:41;21.30;33.50
652;DHT22;310;48.490;9.200;2023-06-26T04:46:06;21.10;34.20
652;DHT22;310;48.490;9.200;2023-06-26T04:48:32;21.20;33.10
652;DHT22;310;48.490;9.200;2023-06-26T04:50:58;21.30;32.40
652;DHT22;310;48.490;9.200;2023-06-26T04:53:24;21.80;33.00
652;DHT22;310;48.490;9.200;2023-06-26T04:55:51;22.50;31.60
652;DHT22;310;48.490;9.200;2023-06-26T04:58:16;22.80;32.60
652;DHT22;310;48.490;9.200;2023-06-26T05:00:42;22.90;32.10
652;DHT22;310;48.490;9.200;2023-06-26T05:03:12;23.00;30.80
652;DHT22;310;48.490;9.200;2023-06-26T05:05:38;23.00;31.10
652;DHT22;310;48.490;9.200;2023-06-26T05:08:17;23.30;31.60
652;DHT22;310;48.490;9.200;2023-06-26T05:10:44;23.30;31.00
652;DHT22;310;48.490;9.200;2023-06-26T05:13:10;23.30;31.00
652;DHT22;310;48.490;9.200;2023-06-26T05:15:36;23.40;30.40
652;DHT22;310;48.490;9.200;2023-06-26T05:18:01;23.40;30.20
652;DHT22;310;48.490;9.200;2023-06-26T05:20:27;23.50;30.40
652;DHT22;310;48.490;9.200;2023-06-26T05:22:53;23.50;29.60
652;DHT22;310;48.490;9.200;2023-06-26T05:25:19;23.70;29.90
652;DHT22;310;48.490;9.200;2023-06-26T05:27:47;23.70;30.00
652;DHT22;310;48.490;9.200;2023-06-26T05:30:15;23.60;28.50
652;DHT22;310;48.490;9.200;2023-06-26T05:32:41;23.30;28.60
652;DHT22;310;48.490;9.200;2023-06-26T05:35:07;23.10;29.10
652;DHT22;310;48.490;9.200;2023-06-26T05:37:33;22.60;30.00
652;DHT22;310;48.490;9.200;2023-06-26T05:40:00;22.40;31.30
652;DHT22;310;48.490;9.200;2023-06-26T05:42:27;22.50;32.80
652;DHT22;310;48.490;9.200;2023-06-26T05:44:53;22.40;31.70
652;DHT22;310;48.490;9.200;2023-06-26T05:47:19;22.60;31.60
652;DHT22;310;48.490;9.200;2023-06-26T05:49:44;22.70;30.40
652;DHT22;310;48.490;9.200;2023-06-26T05:52:10;23.00;29.90
652;DHT22;310;48.490;9.200;2023-06-26T05:54:36;23.20;30.00
652;DHT22;310;48.490;9.200;2023-06-26T05:57:03;23.30;29.50
652;DHT22;310;48.490;9.200;2023-06-26T05:59:30;23.50;29.60
652;DHT22;310;48.490;9.200;2023-06-26T06:01:56;23.60;29.80
652;DHT22;310;48.490;9.200;2023-06-26T06:04:22;23.90;29.10
652;DHT22;310;48.490;9.200;2023-06-26T06:06:47;24.30;29.00
652;DHT22;310;48.490;9.200;2023-06-26T06:09:13;24.50;28.20
652;DHT22;310;48.490;9.200;2023-06-26T06:11:38;25.00;28.20
652;DHT22;310;48.490;9.200;2023-06-26T06:14:04;25.10;27.80
652;DHT22;310;48.490;9.200;2023-06-26T06:16:29;24.50;28.00
652;DHT22;310;48.490;9.200;2023-06-26T06:18:55;24.00;28.80
652;DHT22;310;48.490;9.200;2023-06-26T06:21:21;24.30;29.00
652;DHT22;310;48.490;9.200;2023-06-26T06:23:46;24.40;29.10
652;DHT22;310;48.490;9.200;2023-06-26T06:26:12;24.70;29.10
652;DHT22;310;48.490;9.200;2023-06-26T06:28:39;25.40;27.20
652;DHT22;310;48.490;9.200;2023-06-26T06:31:04;25.50;26.90
652;DHT22;310;48.490;9.200;2023-06-26T06:33:30;25.40;27.40
652;DHT22;310;48.490;9.200;2023-06-26T06:35:55;25.10;27.90
652;DHT22;310;48.490;9.200;2023-06-26T06:38:21;25.10;28.60
652;DHT22;310;48.490;9.200;2023-06-26T06:40:46;25.30;28.10
652;DHT22;310;48.490;9.200;2023-06-26T06:43:12;24.90;28.40
652;DHT22;310;48.490;9.200;2023-06-26T06:45:37;24.70;29.30
652;DHT22;310;48.490;9.200;2023-06-26T06:48:04;24.70;28.60
652;DHT22;310;48.490;9.200;2023-06-26T06:50:29;24.70;29.30
652;DHT22;310;48.490;9.200;2023-06-26T06:52:55;25.30;28.30
652;DHT22;310;48.490;9.200;2023-06-26T06:55:21;25.50;27.90
652;DHT22;310;48.490;9.200;2023-06-26T06:57:46;26.10;27.50
652;DHT22;310;48.490;9.200;2023-06-26T07:00:13;26.60;26.70
652;DHT22;310;48.490;9.200;2023-06-26T07:02:43;27.00;25.80
652;DHT22;310;48.490;9.200;2023-06-26T07:05:09;27.20;25.20
652;DHT22;310;48.490;9.200;2023-06-26T07:07:36;27.50;24.60
652;DHT22;310;48.490;9.200;2023-06-26T07:10:13;27.70;24.70
652;DHT22;310;48.490;9.200;2023-06-26T07:12:38;27.70;25.10
652;DHT22;310;48.490;9.200;2023-06-26T07:15:07;27.80;24.80
652;DHT22;310;48.490;9.200;2023-06-26T07:17:34;27.60;24.20
652;DHT22;310;48.490;9.200;2023-06-26T07:20:00;27.60;24.40
652;DHT22;310;48.490;9.200;2023-06-26T07:22:26;28.00;24.40
652;DHT22;310;48.490;9.200;2023-06-26T07:24:52;27.70;23.60
652;DHT22;310;48.490;9.200;2023-06-26T07:27:19;27.60;23.40
652;DHT22;310;48.490;9.200;2023-06-26T07:29:45;27.60;22.90
652;DHT22;310;48.490;9.200;2023-06-26T07:32:11;27.50;23.40
652;DHT22;310;48.490;9.200;2023-06-26T07:34:36;27.80;22.90
652;DHT22;310;48.490;9.200;2023-06-26T07:37:02;27.70;23.60
652;DHT22;310;48.490;9.200;2023-06-26T07:39:28;27.90;23.10
652;DHT22;310;48.490;9.200;2023-06-26T07:41:54;28.20;21.30
652;DHT22;310;48.490;9.200;2023-06-26T07:44:20;28.30;21.80
652;DHT22;310;48.490;9.200;2023-06-26T07:46:45;28.40;21.80
652;DHT22;310;48.490;9.200;2023-06-26T07:49:11;28.20;22.00
652;DHT22;310;48.490;9.200;2023-06-26T07:51:37;27.60;22.90
652;DHT22;310;48.490;9.200;2023-06-26T07:54:03;28.20;21.30
652;DHT22;310;48.490;9.200;2023-06-26T07:56:29;28.40;20.80
652;DHT22;310;48.490;9.200;2023-06-26T07:58:54;28.70;21.10
652;DHT22;310;48.490;9.200;2023-06-26T08:01:23;29.00;20.30
652;DHT22;310;48.490;9.200;2023-06-26T08:03:48;29.20;20.00
652;DHT22;310;48.490;9.200;2023-06-26T08:06:14;29.20;19.20
652;DHT22;310;48.490;9.200;2023-06-26T08:08:40;29.10;20.10
652;DHT22;310;48.490;9.200;2023-06-26T08:11:05;29.40;18.90
652;DHT22;310;48.490;9.200;2023-06-26T08:13:31;28.80;19.80
652;DHT22;310;48.490;9.200;2023-06-26T08:15:56;28.30;20.20
652;DHT22;310;48.490;9.200;2023-06-26T08:18:22;28.90;20.30
652;DHT22;310;48.490;9.200;2023-06-26T08:20:48;29.10;19.90
652;DHT22;310;48.490;9.200;2023-06-26T08:23:13;29.60;19.50
652;DHT22;310;48.490;9.200;2023-06-26T08:25:39;30.20;19.70
652;DHT22;310;48.490;9.200;2023-06-26T08:28:04;29.90;18.70
652;DHT22;310;48.490;9.200;2023-06-26T08:30:31;29.60;19.00
652;DHT22;310;48.490;9.200;2023-06-26T08:32:57;29.80;19.00
652;DHT22;310;48.490;9.200;2023-06-26T08:35:23;29.30;19.00
652;DHT22;310;48.490;9.200;2023-06-26T08:37:48;29.10;19.30
652;DHT22;310;48.490;9.200;2023-06-26T08:40:17;29.60;18.70
652;DHT22;310;48.490;9.200;2023-06-26T08:42:44;29.90;18.50
652;DHT22;310;48.490;9.200;2023-06-26T08:45:10;29.60;18.70
652;DHT22;310;48.490;9.200;2023-06-26T08:47:37;29.80;18.50
652;DHT22;310;48.490;9.200;2023-06-26T08:50:12;30.20;18.70
652;DHT22;310;48.490;9.200;2023-06-26T08:55:28;29.80;18.60
652;DHT22;310;48.490;9.200;2023-06-26T08:57:55;29.80;18.40
652;DHT22;310;48.490;9.200;2023-06-26T09:00:21;30.10;18.60
652;DHT22;310;48.490;9.200;2023-06-26T09:02:47;30.60;18.00
652;DHT22;310;48.490;9.200;2023-06-26T09:05:12;30.90;17.40
652;DHT22;310;48.490;9.200;2023-06-26T09:07:38;30.30;17.70
652;DHT22;310;48.490;9.200;2023-06-26T09:10:04;29.70;18.90
652;DHT22;310;48.490;9.200;2023-06-26T09:12:29;29.70;18.90
652;DHT22;310;48.490;9.200;2023-06-26T09:14:56;29.50;18.90
652;DHT22;310;48.490;9.200;2023-06-26T09:17:28;29.70;18.40
652;DHT22;310;48.490;9.200;2023-06-26T09:19:54;29.90;18.30
652;DHT22;310;48.490;9.200;2023-06-26T09:22:19;30.00;18.40
652;DHT22;310;48.490;9.200;2023-06-26T09:24:45;30.50;18.80
652;DHT22;310;48.490;9.200;2023-06-26T09:27:11;31.00;17.00
652;DHT22;310;48.490;9.200;2023-06-26T09:29:38;30.40;17.80
652;DHT22;310;48.490;9.200;2023-06-26T09:32:04;30.90;17.20
652;DHT22;310;48.490;9.200;2023-06-26T09:34:31;31.30;17.00
652;DHT22;310;48.490;9.200;2023-06-26T09:36:58;30.90;17.00
652;DHT22;310;48.490;9.200;2023-06-26T09:39:23;31.00;17.20
652;DHT22;310;48.490;9.200;2023-06-26T09:41:50;31.30;15.90
652;DHT22;310;48.490;9.200;2023-06-26T09:44:16;31.60;16.40
652;DHT22;310;48.490;9.200;2023-06-26T09:46:45;31.10;16.10
652;DHT22;310;48.490;9.200;2023-06-26T09:49:11;31.20;16.40
652;DHT22;310;48.490;9.200;2023-06-26T09:51:38;31.10;15.80
652;DHT22;310;48.490;9.200;2023-06-26T09:54:05;31.20;16.30
652;DHT22;310;48.490;9.200;2023-06-26T09:56:31;30.80;17.10
652;DHT22;310;48.490;9.200;2023-06-26T09:58:59;31.20;16.40
652;DHT22;310;48.490;9.200;2023-06-26T10:01:25;31.60;16.00
652;DHT22;310;48.490;9.200;2023-06-26T10:03:51;31.70;15.70
652;DHT22;310;48.490;9.200;2023-06-26T10:09:27;32.40;15.30
652;DHT22;310;48.490;9.200;2023-06-26T10:12:03;32.40;14.50
652;DHT22;310;48.490;9.200;2023-06-26T10:14:40;32.50;14.90
652;DHT22;310;48.490;9.200;2023-06-26T10:17:12;32.70;14.10
652;DHT22;310;48.490;9.200;2023-06-26T10:19:44;33.00;13.50
652;DHT22;310;48.490;9.200;2023-06-26T10:22:16;32.30;15.00
652;DHT22;310;48.490;9.200;2023-06-26T10:24:43;31.40;15.70
652;DHT22;310;48.490;9.200;2023-06-26T10:27:21;31.40;16.10
652;DHT22;310;48.490;9.200;2023-06-26T10:29:51;32.20;15.20
652;DHT22;310;48.490;9.200;2023-06-26T10:32:19;31.70;16.10
652;DHT22;310;48.490;9.200;2023-06-26T10:34:45;31.70;15.40
652;DHT22;310;48.490;9.200;2023-06-26T10:37:12;31.90;15.90
652;DHT22;310;48.490;9.200;2023-06-26T10:39:52;32.50;14.40
652;DHT22;310;48.490;9.200;2023-06-26T10:42:28;32.50;14.40
652;DHT22;310;48.490;9.200;2023-06-26T10:45:19;32.70;14.20
652;DHT22;310;48.490;9.200;2023-06-26T10:47:48;31.90;13.80
652;DHT22;310;48.490;9.200;2023-06-26T10:52:44;31.50;14.20
652;DHT22;310;48.490;9.200;2023-06-26T10:55:10;31.90;14.50
652;DHT22;310;48.490;9.200;2023-06-26T10:57:36;32.00;14.10
652;DHT22;310;48.490;9.200;2023-06-26T11:00:09;31.50;14.80
652;DHT22;310;48.490;9.200;2023-06-26T11:02:51;31.30;15.00
652;DHT22;310;48.490;9.200;2023-06-26T11:05:25;31.40;15.30
652;DHT22;310;48.490;9.200;2023-06-26T11:08:36;31.90;14.60
652;DHT22;310;48.490;9.200;2023-06-26T11:11:09;32.10;14.70
652;DHT22;310;48.490;9.200;2023-06-26T11:13:34;32.30;14.70
652;DHT22;310;48.490;9.200;2023-06-26T11:16:01;31.40;16.30
652;DHT22;310;48.490;9.200;2023-06-26T11:18:27;31.40;16.10
652;DHT22;310;48.490;9.200;2023-06-26T11:20:53;31.20;16.60
652;DHT22;310;48.490;9.200;2023-06-26T11:23:22;31.10;16.80
652;DHT22;310;48.490;9.200;2023-06-26T11:25:49;30.60;18.10
652;DHT22;310;48.490;9.200;2023-06-26T11:28:15;30.30;18.70
652;DHT22;310;48.490;9.200;2023-06-26T11:30:40;31.00;17.50
652;DHT22;310;48.490;9.200;2023-06-26T11:33:09;31.00;17.80
652;DHT22;310;48.490;9.200;2023-06-26T11:35:35;31.40;17.90
652;DHT22;310;48.490;9.200;2023-06-26T11:38:01;32.00;16.80
652;DHT22;310;48.490;9.200;2023-06-26T11:40:34;32.00;15.30
652;DHT22;310;48.490;9.200;2023-06-26T11:43:01;32.40;15.90
652;DHT22;310;48.490;9.200;2023-06-26T11:45:31;32.90;15.10
652;DHT22;310;48.490;9.200;2023-06-26T11:47:58;32.60;16.30
652;DHT22;310;48.490;9.200;2023-06-26T11:50:24;32.60;15.90
652;DHT22;310;48.490;9.200;2023-06-26T11:52:57;33.20;15.80
652;DHT22;310;48.490;9.200;2023-06-26T11:55:24;34.50;13.90
652;DHT22;310;48.490;9.200;2023-06-26T11:57:54;33.40;15.30
652;DHT22;310;48.490;9.200;2023-06-26T12:00:21;33.00;16.20
652;DHT22;310;48.490;9.200;2023-06-26T12:02:47;33.50;15.40
652;DHT22;310;48.490;9.200;2023-06-26T12:05:14;34.00;14.80
652;DHT22;310;48.490;9.200;2023-06-26T12:07:42;34.80;13.50
652;DHT22;310;48.490;9.200;2023-06-26T12:10:12;33.30;15.20
652;DHT22;310;48.490;9.200;2023-06-26T12:12:39;32.30;16.60
652;DHT22;310;48.490;9.200;2023-06-26T12:15:07;32.60;16.80
652;DHT22;310;48.490;9.200;2023-06-26T12:17:33;32.90;15.90
652;DHT22;310;48.490;9.200;2023-06-26T12:19:58;33.40;15.60
652;DHT22;310;48.490;9.200;2023-06-26T12:22:24;33.90;15.00
652;DHT22;310;48.490;9.200;2023-06-26T12:24:58;33.40;15.30
652;DHT22;310;48.490;9.200;2023-06-26T12:27:25;33.30;15.50
652;DHT22;310;48.490;9.200;2023-06-26T12:29:52;33.10;15.30
652;DHT22;310;48.490;9.200;2023-06-26T12:32:19;32.80;16.50
652;DHT22;310;48.490;9.200;2023-06-26T12:34:48;32.90;16.10
652;DHT22;310;48.490;9.200;2023-06-26T12:37:15;32.80;16.00
652;DHT22;310;48.490;9.200;2023-06-26T12:39:52;32.90;15.50
652;DHT22;310;48.490;9.200;2023-06-26T12:42:25;33.30;15.90
652;DHT22;310;48.490;9.200;2023-06-26T12:44:52;33.40;15.10
652;DHT22;310;48.490;9.200;2023-06-26T12:47:19;33.10;15.50
652;DHT22;310;48.490;9.200;2023-06-26T12:49:50;33.00;15.90
652;DHT22;310;48.490;9.200;2023-06-26T12:52:17;33.10;15.40
652;DHT22;310;48.490;9.200;2023-06-26T12:54:44;32.50;16.60
652;DHT22;310;48.490;9.200;2023-06-26T12:57:10;32.30;16.80
652;DHT22;310;48.490;9.200;2023-06-26T12:59:37;32.20;17.10
652;DHT22;310;48.490;9.200;2023-06-26T13:02:03;32.40;17.10
652;DHT22;310;48.490;9.200;2023-06-26T13:04:29;32.30;17.40
652;DHT22;310;48.490;9.200;2023-06-26T13:06:55;33.30;16.70
652;DHT22;310;48.490;9.200;2023-06-26T13:09:24;32.90;17.50
652;DHT22;310;48.490;9.200;2023-06-26T13:11:51;32.60;16.70
652;DHT22;310;48.490;9.200;2023-06-26T13:14:17;32.20;17.20
652;DHT22;310;48.490;9.200;2023-06-26T13:16:42;32.40;17.70
652;DHT22;310;48.490;9.200;2023-06-26T13:19:08;32.30;18.00
652;DHT22;310;48.490;9.200;2023-06-26T13:21:34;32.90;18.10
652;DHT22;310;48.490;9.200;2023-06-26T13:24:00;32.50;17.40
652;DHT22;310;48.490;9.200;2023-06-26T13:26:26;31.90;17.70
652;DHT22;310;48.490;9.200;2023-06-26T13:28:54;32.00;18.60
652;DHT22;310;48.490;9.200;2023-06-26T13:31:20;32.30;18.40
652;DHT22;310;48.490;9.200;2023-06-26T13:33:47;32.40;18.30
652;DHT22;310;48.490;9.200;2023-06-26T13:36:17;32.20;18.30
652;DHT22;310;48.490;9.200;2023-06-26T13:38:42;32.00;18.20
652;DHT22;310;48.490;9.200;2023-06-26T13:41:08;31.80;19.00
652;DHT22;310;48.490;9.200;2023-06-26T13:43:33;31.90;19.70
652;DHT22;310;48.490;9.200;2023-06-26T13:46:00;31.90;19.50
652;DHT22;310;48.490;9.200;2023-06-26T13:48:26;28.30;17.60
652;DHT22;310;48.490;9.200;2023-06-26T13:50:52;31.40;19.80
652;DHT22;310;48.490;9.200;2023-06-26T13:53:18;31.60;20.10
652;DHT22;310;48.490;9.200;2023-06-26T13:55:44;32.10;19.30
652;DHT22;310;48.490;9.200;2023-06-26T13:58:09;32.40;19.00
652;DHT22;310;48.490;9.200;2023-06-26T14:00:37;32.20;18.30
652;DHT22;310;48.490;9.200;2023-06-26T14:03:03;31.40;19.30
652;DHT22;310;48.490;9.200;2023-06-26T14:05:33;30.70;20.10
652;DHT22;310;48.490;9.200;2023-06-26T14:07:59;30.50;20.60
652;DHT22;310;48.490;9.200;2023-06-26T14:10:24;30.70;20.60
652;DHT22;310;48.490;9.200;2023-06-26T14:12:51;31.10;19.60
652;DHT22;310;48.490;9.200;2023-06-26T14:15:16;30.60;20.20
652;DHT22;310;48.490;9.200;2023-06-26T14:17:42;30.60;19.90
652;DHT22;310;48.490;9.200;2023-06-26T14:20:09;30.40;20.50
652;DHT22;310;48.490;9.200;2023-06-26T14:22:42;30.80;20.40
652;DHT22;310;48.490;9.200;2023-06-26T14:25:12;31.30;19.30
652;DHT22;310;48.490;9.200;2023-06-26T14:27:39;31.30;19.60
652;DHT22;310;48.490;9.200;2023-06-26T14:30:05;31.00;19.10
652;DHT22;310;48.490;9.200;2023-06-26T14:32:31;30.70;19.60
652;DHT22;310;48.490;9.200;2023-06-26T14:34:57;30.50;20.20
652;DHT22;310;48.490;9.200;2023-06-26T14:37:23;30.40;20.30
652;DHT22;310;48.490;9.200;2023-06-26T14:39:49;30.50;19.50
652;DHT22;310;48.490;9.200;2023-06-26T14:42:15;30.60;19.80
652;DHT22;310;48.490;9.200;2023-06-26T14:44:40;30.70;19.40
652;DHT22;310;48.490;9.200;2023-06-26T14:47:06;30.90;19.10
652;DHT22;310;48.490;9.200;2023-06-26T14:49:31;30.70;18.50
652;DHT22;310;48.490;9.200;2023-06-26T14:51:57;30.40;19.00
652;DHT22;310;48.490;9.200;2023-06-26T14:54:23;31.10;18.90
652;DHT22;310;48.490;9.200;2023-06-26T14:56:49;31.30;18.30
652;DHT22;310;48.490;9.200;2023-06-26T14:59:14;30.40;18.80
652;DHT22;310;48.490;9.200;2023-06-26T15:01:40;30.40;18.80
652;DHT22;310;48.490;9.200;2023-06-26T15:04:06;30.20;19.00
652;DHT22;310;48.490;9.200;2023-06-26T15:06:32;30.40;18.90
652;DHT22;310;48.490;9.200;2023-06-26T15:08:58;30.20;19.60
652;DHT22;310;48.490;9.200;2023-06-26T15:11:24;30.50;19.00
652;DHT22;310;48.490;9.200;2023-06-26T15:13:49;30.10;19.20
652;DHT22;310;48.490;9.200;2023-06-26T15:16:15;30.20;19.10
652;DHT22;310;48.490;9.200;2023-06-26T15:18:41;30.70;18.90
652;DHT22;310;48.490;9.200;2023-06-26T15:21:07;30.60;18.90
652;DHT22;310;48.490;9.200;2023-06-26T15:23:33;30.60;18.00
652;DHT22;310;48.490;9.200;2023-06-26T15:25:59;30.20;18.60
652;DHT22;310;48.490;9.200;2023-06-26T15:28:25;30.20;18.70
652;DHT22;310;48.490;9.200;2023-06-26T15:30:50;29.90;18.90
652;DHT22;310;48.490;9.200;2023-06-26T15:33:16;29.70;19.70
652;DHT22;310;48.490;9.200;2023-06-26T15:35:41;29.80;18.80
652;DHT22;310;48.490;9.200;2023-06-26T15:38:07;29.50;18.80
652;DHT22;310;48.490;9.200;2023-06-26T15:40:32;29.70;19.10
652;DHT22;310;48.490;9.200;2023-06-26T15:42:58;30.30;18.70
652;DHT22;310;48.490;9.200;2023-06-26T15:45:24;30.30;18.50
652;DHT22;310;48.490;9.200;2023-06-26T15:47:53;30.10;18.90
652;DHT22;310;48.490;9.200;2023-06-26T15:50:19;30.10;18.60
652;DHT22;310;48.490;9.200;2023-06-26T15:52:48;29.90;18.50
652;DHT22;310;48.490;9.200;2023-06-26T15:55:14;29.70;19.80
652;DHT22;310;48.490;9.200;2023-06-26T15:57:40;30.00;18.90
652;DHT22;310;48.490;9.200;2023-06-26T16:00:06;30.20;18.70
652;DHT22;310;48.490;9.200;2023-06-26T16:02:32;29.90;19.10
652;DHT22;310;48.490;9.200;2023-06-26T16:04:57;29.80;19.50
652;DHT22;310;48.490;9.200;2023-06-26T16:07:23;29.70;19.00
652;DHT22;310;48.490;9.200;2023-06-26T16:09:49;29.60;19.40
652;DHT22;310;48.490;9.200;2023-06-26T16:12:14;29.30;19.80
652;DHT22;310;48.490;9.200;2023-06-26T16:14:40;29.30;19.50
652;DHT22;310;48.490;9.200;2023-06-26T16:17:06;29.20;19.80
652;DHT22;310;48.490;9.200;2023-06-26T16:19:32;29.20;20.20
652;DHT22;310;48.490;9.200;2023-06-26T16:21:58;29.30;20.10
652;DHT22;310;48.490;9.200;2023-06-26T16:24:23;28.90;20.50
652;DHT22;310;48.490;9.200;2023-06-26T16:26:49;28.70;20.70
652;DHT22;310;48.490;9.200;2023-06-26T16:29:15;28.60;20.50
652;DHT22;310;48.490;9.200;2023-06-26T16:31:41;28.60;20.90
652;DHT22;310;48.490;9.200;2023-06-26T16:34:07;28.50;21.00
652;DHT22;310;48.490;9.200;2023-06-26T16:36:32;28.60;20.60
652;DHT22;310;48.490;9.200;2023-06-26T16:38:58;28.40;21.00
652;DHT22;310;48.490;9.200;2023-06-26T16:41:24;28.20;21.40
652;DHT22;310;48.490;9.200;2023-06-26T16:43:50;28.30;21.30
652;DHT22;310;48.490;9.200;2023-06-26T16:46:15;28.50;21.00